createdAt,value
2017-06-21T00:00:01.613Z,18.77
2017-06-21T00:02:29.857Z,18.63
2017-06-21T00:04:57.337Z,19.30
2017-06-21T00:07:24.837Z,20.80
2017-06-21T00:09:52.369Z,20.70
2017-06-21T00:12:20.893Z,20.50
2017-06-21T00:14:49.366Z,19.17
2017-06-21T00:17:17.781Z,22.60
2017-06-21T00:19:45.261Z,18.10
2017-06-21T00:22:13.534Z,20.90
2017-06-21T00:24:41.790Z,23.90
2017-06-21T00:27:09.270Z,18.90
2017-06-21T00:29:37.537Z,20.90
2017-06-21T00:32:05.013Z,21.87
2017-06-21T00:34:33.258Z,17.80
2017-06-21T00:37:00.757Z,22.30
2017-06-21T00:39:28.237Z,20.03
2017-06-21T00:41:55.716Z,20.67
2017-06-21T00:44:23.245Z,23.63
2017-06-21T00:46:50.725Z,16.87
2017-06-21T00:49:18.201Z,18.53
2017-06-21T00:51:45.701Z,19.67
2017-06-21T00:54:13.181Z,20.90
2017-06-21T00:56:40.923Z,19.63
2017-06-21T00:59:08.427Z,20.03
2017-06-21T01:01:35.913Z,18.57
2017-06-21T01:04:04.157Z,18.93
2017-06-21T01:06:31.658Z,19.53
2017-06-21T01:08:59.908Z,17.80
2017-06-21T01:11:27.393Z,19.17
2017-06-21T01:13:54.896Z,17.80
2017-06-21T01:16:22.378Z,19.97
2017-06-21T01:18:49.857Z,19.77
2017-06-21T01:21:18.120Z,20.47
2017-06-21T01:23:46.377Z,21.00
2017-06-21T01:26:13.853Z,22.87
2017-06-21T01:28:42.121Z,21.43
2017-06-21T01:31:09.600Z,22.07
2017-06-21T01:33:37.844Z,22.87
2017-06-21T01:36:05.346Z,21.03
2017-06-21T01:38:32.825Z,19.77
2017-06-21T01:41:00.305Z,19.33
2017-06-21T01:43:27.813Z,21.40
2017-06-21T01:45:55.294Z,22.10
2017-06-21T01:48:22.789Z,20.83
2017-06-21T01:50:50.518Z,21.63
2017-06-21T01:53:18.005Z,21.43
2017-06-21T01:55:45.486Z,21.10
2017-06-21T01:58:13.755Z,24.50
2017-06-21T02:00:42.002Z,22.50
2017-06-21T02:03:09.480Z,20.33
2017-06-21T02:05:36.993Z,20.73
2017-06-21T02:08:04.553Z,21.20
2017-06-21T02:10:32.034Z,24.63
2017-06-21T02:12:59.533Z,21.10
2017-06-21T02:15:27.780Z,21.77
2017-06-21T02:17:56.039Z,19.60
2017-06-21T02:20:23.537Z,19.90
2017-06-21T02:22:51.782Z,19.80
2017-06-21T02:25:19.265Z,19.30
2017-06-21T02:27:47.530Z,24.87
2017-06-21T02:30:16.029Z,18.47
2017-06-21T02:32:44.278Z,18.10
2017-06-21T02:35:11.782Z,18.70
2017-06-21T02:37:39.261Z,20.97
2017-06-21T02:40:06.742Z,18.23
2017-06-21T02:42:34.241Z,19.73
2017-06-21T02:45:01.819Z,18.63
2017-06-21T02:47:29.297Z,19.07
2017-06-21T02:49:56.797Z,24.47
2017-06-21T02:52:25.041Z,21.53
2017-06-21T02:54:52.525Z,25.73
2017-06-21T02:57:20.830Z,20.97
2017-06-21T02:59:48.346Z,20.93
2017-06-21T03:02:15.862Z,27.97
2017-06-21T03:04:43.365Z,22.17
2017-06-21T03:07:10.845Z,21.23
2017-06-21T03:09:39.090Z,23.03
2017-06-21T03:12:06.589Z,19.80
2017-06-21T03:14:34.069Z,23.20
2017-06-21T03:17:01.549Z,28.00
2017-06-21T03:19:29.045Z,21.13
2017-06-21T03:21:57.565Z,21.40
2017-06-21T03:24:25.045Z,20.67
2017-06-21T03:26:52.553Z,22.57
2017-06-21T03:29:20.037Z,21.80
2017-06-21T03:31:47.516Z,25.40
2017-06-21T03:34:15.013Z,23.03
2017-06-21T03:36:43.257Z,21.40
2017-06-21T03:39:10.733Z,25.13
2017-06-21T03:41:39.105Z,19.53
2017-06-21T03:44:06.590Z,19.37
2017-06-21T03:46:34.073Z,20.20
2017-06-21T03:49:01.576Z,18.90
2017-06-21T03:51:29.085Z,22.30
2017-06-21T03:53:56.566Z,22.77
2017-06-21T03:56:24.066Z,18.67
2017-06-21T03:58:52.313Z,21.37
2017-06-21T04:01:19.792Z,22.47
2017-06-21T04:03:48.057Z,21.70
2017-06-21T04:06:15.537Z,21.53
2017-06-21T04:08:43.086Z,20.70
2017-06-21T04:11:11.466Z,18.70
2017-06-21T04:13:39.713Z,20.63
2017-06-21T04:16:07.194Z,20.47
2017-06-21T04:18:35.461Z,19.50
2017-06-21T04:21:03.705Z,21.70
2017-06-21T04:23:31.210Z,22.07
2017-06-21T04:25:59.511Z,23.07
2017-06-21T04:28:27.026Z,20.10
2017-06-21T04:30:55.278Z,22.80
2017-06-21T04:33:22.778Z,19.73
2017-06-21T04:35:51.025Z,23.60
2017-06-21T04:38:18.504Z,21.50
2017-06-21T04:40:46.785Z,26.63
2017-06-21T04:43:15.030Z,25.60
2017-06-21T04:45:42.610Z,20.20
2017-06-21T04:48:10.877Z,22.43
2017-06-21T04:50:39.129Z,24.23
2017-06-21T04:53:06.610Z,25.53
2017-06-21T04:55:34.881Z,22.33
2017-06-21T04:58:02.391Z,20.30
2017-06-21T05:00:29.903Z,21.83
2017-06-21T05:02:58.177Z,23.43
2017-06-21T05:05:26.424Z,20.50
2017-06-21T05:07:53.901Z,31.03
2017-06-21T05:10:21.782Z,17.60
2017-06-21T05:12:50.029Z,17.90
2017-06-21T05:15:17.509Z,16.50
2017-06-21T05:17:45.814Z,16.90
2017-06-21T05:20:13.335Z,15.23
2017-06-21T05:22:40.820Z,17.13
2017-06-21T05:25:11.215Z,24.13
2017-06-21T05:27:38.730Z,17.40
2017-06-21T05:30:06.247Z,15.17
2017-06-21T05:32:34.559Z,16.27
2017-06-21T05:35:02.082Z,16.00
2017-06-21T05:37:30.362Z,14.97
2017-06-21T05:39:58.700Z,15.53
2017-06-21T05:42:26.214Z,14.23
2017-06-21T05:44:54.007Z,14.37
2017-06-21T05:47:21.579Z,15.90
2017-06-21T05:49:49.095Z,15.17
2017-06-21T05:52:16.614Z,17.27
2017-06-21T05:54:44.155Z,15.43
2017-06-21T05:57:11.671Z,13.37
2017-06-21T05:59:39.187Z,15.43
2017-06-21T06:02:06.726Z,13.60
2017-06-21T06:04:34.208Z,13.57
2017-06-21T06:07:01.722Z,12.30
2017-06-21T06:09:29.263Z,14.00
2017-06-21T06:11:56.778Z,13.30
2017-06-21T06:14:24.294Z,11.17
2017-06-21T06:16:52.146Z,12.33
2017-06-21T06:19:19.662Z,12.47
2017-06-21T06:21:47.176Z,18.47
2017-06-21T06:24:14.718Z,14.53
2017-06-21T06:26:42.206Z,13.07
2017-06-21T06:29:09.685Z,12.17
2017-06-21T06:31:37.201Z,13.33
2017-06-21T06:34:04.681Z,12.13
2017-06-21T06:36:32.162Z,10.83
2017-06-21T06:38:59.662Z,13.47
2017-06-21T06:41:27.141Z,11.80
2017-06-21T06:43:54.620Z,13.97
2017-06-21T06:46:22.522Z,12.27
2017-06-21T06:48:50.770Z,11.53
2017-06-21T06:51:18.254Z,12.03
2017-06-21T06:53:46.521Z,12.80
2017-06-21T06:56:14.765Z,11.60
2017-06-21T06:58:42.245Z,11.03
2017-06-21T07:01:09.745Z,12.37
2017-06-21T07:03:37.265Z,11.40
2017-06-21T07:06:05.513Z,10.97
2017-06-21T07:08:33.012Z,11.57
2017-06-21T07:11:01.261Z,16.50
2017-06-21T07:13:28.742Z,11.53
2017-06-21T07:15:57.021Z,10.97
2017-06-21T07:18:25.273Z,11.33
2017-06-21T07:20:52.760Z,12.87
2017-06-21T07:23:20.266Z,11.10
2017-06-21T07:25:47.752Z,12.43
2017-06-21T07:28:16.002Z,12.47
2017-06-21T07:30:43.509Z,12.03
2017-06-21T07:33:11.058Z,11.97
2017-06-21T07:35:39.337Z,11.77
2017-06-21T07:38:07.602Z,11.87
2017-06-21T07:40:35.849Z,11.60
2017-06-21T07:43:03.330Z,13.33
2017-06-21T07:45:31.596Z,12.50
2017-06-21T07:47:59.074Z,12.23
2017-06-21T07:50:27.317Z,14.50
2017-06-21T07:52:54.906Z,11.37
2017-06-21T07:55:23.153Z,10.97
2017-06-21T07:57:50.633Z,12.00
2017-06-21T08:00:18.968Z,11.77
2017-06-21T08:02:46.448Z,12.30
2017-06-21T08:05:13.929Z,12.70
2017-06-21T08:07:42.194Z,12.40
2017-06-21T08:10:10.443Z,11.77
2017-06-21T08:12:37.925Z,11.43
2017-06-21T08:15:06.260Z,13.60
2017-06-21T08:17:33.741Z,11.80
2017-06-21T08:20:01.223Z,13.40
2017-06-21T08:22:29.493Z,12.57
2017-06-21T08:24:57.773Z,11.93
2017-06-21T08:27:26.021Z,13.10
2017-06-21T08:29:53.525Z,13.83
2017-06-21T08:32:21.005Z,14.03
2017-06-21T08:34:48.493Z,12.40
2017-06-21T08:37:15.994Z,12.40
2017-06-21T08:39:43.473Z,25.17
2017-06-21T08:42:10.957Z,13.67
2017-06-21T08:44:38.457Z,11.83
2017-06-21T08:47:05.942Z,12.87
2017-06-21T08:49:33.425Z,12.93
2017-06-21T08:52:00.950Z,12.20
2017-06-21T08:54:28.429Z,11.60
2017-06-21T08:56:55.927Z,12.33
2017-06-21T08:59:23.453Z,13.07
2017-06-21T09:01:50.938Z,12.40
2017-06-21T09:04:18.421Z,10.97
2017-06-21T09:06:46.934Z,14.43
2017-06-21T09:09:14.412Z,12.67
2017-06-21T09:11:41.888Z,12.17
2017-06-21T09:14:09.618Z,10.57
2017-06-21T09:16:37.097Z,11.47
2017-06-21T09:19:04.581Z,11.40
2017-06-21T09:21:32.082Z,12.03
2017-06-21T09:23:59.597Z,11.40
2017-06-21T09:26:27.842Z,14.87
2017-06-21T09:28:55.578Z,10.60
2017-06-21T09:31:23.057Z,10.80
2017-06-21T09:33:50.529Z,9.37
2017-06-21T09:36:18.023Z,10.50
2017-06-21T09:38:45.505Z,11.53
2017-06-21T09:41:12.981Z,10.73
2017-06-21T09:43:40.482Z,11.40
2017-06-21T09:46:08.730Z,12.10
2017-06-21T09:48:36.220Z,11.70
2017-06-21T09:51:04.485Z,10.70
2017-06-21T09:53:31.989Z,11.30
2017-06-21T09:55:59.469Z,12.20
2017-06-21T09:58:38.856Z,12.83
2017-06-21T10:01:06.369Z,13.07
2017-06-21T10:03:33.849Z,12.33
2017-06-21T10:06:02.130Z,11.90
2017-06-21T10:08:30.373Z,12.67
2017-06-21T10:10:57.962Z,11.40
2017-06-21T10:13:26.313Z,12.47
2017-06-21T10:15:53.798Z,12.23
2017-06-21T10:18:22.048Z,12.07
2017-06-21T10:20:49.550Z,11.63
2017-06-21T10:23:17.033Z,11.23
2017-06-21T10:25:44.509Z,11.10
2017-06-21T10:28:12.249Z,10.90
2017-06-21T10:30:39.725Z,13.93
2017-06-21T10:33:07.208Z,11.13
2017-06-21T10:35:34.711Z,12.87
2017-06-21T10:38:02.189Z,12.23
2017-06-21T10:40:29.669Z,12.20
2017-06-21T10:42:57.173Z,13.03
2017-06-21T10:45:24.705Z,12.40
2017-06-21T10:47:52.950Z,16.70
2017-06-21T10:50:20.846Z,12.43
2017-06-21T10:52:49.090Z,10.33
2017-06-21T10:55:16.569Z,11.47
2017-06-21T10:57:44.065Z,8.53
2017-06-21T11:00:11.541Z,13.53
2017-06-21T11:02:39.021Z,15.50
2017-06-21T11:05:06.513Z,10.53
2017-06-21T11:07:34.981Z,10.27
2017-06-21T11:10:03.217Z,9.83
2017-06-21T11:12:30.708Z,9.50
2017-06-21T11:14:58.189Z,11.47
2017-06-21T11:17:25.735Z,9.70
2017-06-21T11:19:53.253Z,10.50
2017-06-21T11:22:20.734Z,10.40
2017-06-21T11:24:48.222Z,11.07
2017-06-21T11:27:15.729Z,10.10
2017-06-21T11:29:43.209Z,18.53
2017-06-21T11:32:10.689Z,11.33
2017-06-21T11:34:38.189Z,11.63
2017-06-21T11:37:05.672Z,10.53
2017-06-21T11:39:33.925Z,9.93
2017-06-21T11:42:01.421Z,10.07
2017-06-21T11:44:29.948Z,8.80
2017-06-21T11:46:57.425Z,8.90
2017-06-21T11:49:24.927Z,9.67
2017-06-21T11:51:53.171Z,10.30
2017-06-21T11:54:20.914Z,9.40
2017-06-21T11:56:48.429Z,9.47
2017-06-21T11:59:15.937Z,9.23
2017-06-21T12:01:43.439Z,9.13
2017-06-21T12:04:10.989Z,9.00
2017-06-21T12:06:39.324Z,9.33
2017-06-21T12:09:06.869Z,9.23
2017-06-21T12:11:34.401Z,9.27
2017-06-21T12:14:01.921Z,8.80
2017-06-21T12:16:29.393Z,6.67
2017-06-21T12:18:57.739Z,8.33
2017-06-21T12:21:25.225Z,6.50
2017-06-21T12:23:52.936Z,7.20
2017-06-21T12:26:20.432Z,8.13
2017-06-21T12:28:48.721Z,5.53
2017-06-21T12:31:16.965Z,6.17
2017-06-21T12:33:44.464Z,6.20
2017-06-21T12:36:12.716Z,5.87
2017-06-21T12:38:40.973Z,7.97
2017-06-21T12:41:08.509Z,8.83
2017-06-21T12:43:36.014Z,7.13
2017-06-21T12:46:03.589Z,7.10
2017-06-21T12:48:32.109Z,7.90
2017-06-21T12:50:59.593Z,5.53
2017-06-21T12:53:27.187Z,5.90
2017-06-21T12:55:54.693Z,11.80
2017-06-21T12:58:22.161Z,6.00
2017-06-21T13:00:49.633Z,6.67
2017-06-21T13:03:17.126Z,6.40
2017-06-21T13:05:44.597Z,6.30
2017-06-21T13:08:12.073Z,6.50
2017-06-21T13:10:39.569Z,5.57
2017-06-21T13:13:07.037Z,5.20
2017-06-21T13:15:35.273Z,6.20
2017-06-21T13:18:02.760Z,9.17
2017-06-21T13:20:30.238Z,7.07
2017-06-21T13:22:58.478Z,7.73
2017-06-21T13:25:25.970Z,11.83
2017-06-21T13:27:53.448Z,7.50
2017-06-21T13:30:20.921Z,6.83
2017-06-21T13:32:48.417Z,12.23
2017-06-21T13:35:15.888Z,7.40
2017-06-21T13:37:44.133Z,6.60
2017-06-21T13:40:11.625Z,7.37
2017-06-21T13:42:39.101Z,6.07
2017-06-21T13:45:06.570Z,6.27
2017-06-21T13:47:34.075Z,6.40
2017-06-21T13:50:01.545Z,7.50
2017-06-21T13:52:29.781Z,6.33
2017-06-21T13:54:57.272Z,6.80
2017-06-21T13:57:24.745Z,11.00
2017-06-21T13:59:52.218Z,8.30
2017-06-21T14:02:19.713Z,7.60
2017-06-21T14:04:47.185Z,8.07
2017-06-21T14:07:14.703Z,7.43
2017-06-21T14:09:42.194Z,7.70
2017-06-21T14:12:09.930Z,8.30
2017-06-21T14:14:37.401Z,7.70
2017-06-21T14:17:04.893Z,7.13
2017-06-21T14:19:33.129Z,6.77
2017-06-21T14:22:00.605Z,8.30
2017-06-21T14:24:28.097Z,6.30
2017-06-21T14:26:55.569Z,7.27
2017-06-21T14:29:23.053Z,7.90
2017-06-21T14:31:50.545Z,8.17
2017-06-21T14:34:18.017Z,7.10
2017-06-21T14:36:46.253Z,8.40
2017-06-21T14:39:13.759Z,9.07
2017-06-21T14:41:41.232Z,8.40
2017-06-21T14:44:08.704Z,7.67
2017-06-21T14:46:36.193Z,8.40
2017-06-21T14:49:03.665Z,9.03
2017-06-21T14:51:31.136Z,8.27
2017-06-21T14:53:59.393Z,7.77
2017-06-21T14:56:26.866Z,7.30
2017-06-21T14:58:55.117Z,7.07
2017-06-21T15:01:22.613Z,7.20
2017-06-21T15:03:50.085Z,8.23
2017-06-21T15:06:17.561Z,6.80
2017-06-21T15:08:45.061Z,7.33
2017-06-21T15:11:13.426Z,8.00
2017-06-21T15:13:41.693Z,7.30
2017-06-21T15:16:09.190Z,9.20
2017-06-21T15:18:36.664Z,7.13
2017-06-21T15:21:04.141Z,11.07
2017-06-21T15:23:31.639Z,7.80
2017-06-21T15:25:59.110Z,8.00
2017-06-21T15:28:27.353Z,8.60
2017-06-21T15:30:54.849Z,8.43
2017-06-21T15:33:23.085Z,8.97
2017-06-21T15:35:50.565Z,9.90
2017-06-21T15:38:18.824Z,8.50
2017-06-21T15:40:46.609Z,8.20
2017-06-21T15:43:14.102Z,9.50
2017-06-21T15:45:41.621Z,8.70
2017-06-21T15:48:09.857Z,8.20
2017-06-21T15:50:37.328Z,9.07
2017-06-21T15:53:04.817Z,8.50
2017-06-21T15:55:33.075Z,10.03
2017-06-21T15:58:00.553Z,9.40
2017-06-21T16:00:28.812Z,8.10
2017-06-21T16:02:57.065Z,8.63
2017-06-21T16:05:24.537Z,7.60
2017-06-21T16:07:52.070Z,13.20
2017-06-21T16:10:19.545Z,9.60
2017-06-21T16:12:47.017Z,9.57
2017-06-21T16:15:15.284Z,10.50
2017-06-21T16:17:42.793Z,8.10
2017-06-21T16:20:10.270Z,9.27
2017-06-21T16:22:37.765Z,8.30
2017-06-21T16:25:06.005Z,9.03
2017-06-21T16:27:33.481Z,8.10
2017-06-21T16:30:00.973Z,8.63
2017-06-21T16:32:28.445Z,14.70
2017-06-21T16:34:55.925Z,7.63
2017-06-21T16:37:23.417Z,8.27
2017-06-21T16:39:50.893Z,9.50
2017-06-21T16:42:19.133Z,7.43
2017-06-21T16:44:46.629Z,9.47
2017-06-21T16:47:14.873Z,8.50
2017-06-21T16:49:42.341Z,8.90
2017-06-21T16:52:10.125Z,8.60
2017-06-21T16:54:37.706Z,8.40
2017-06-21T16:57:05.182Z,8.30
2017-06-21T16:59:32.676Z,9.50
2017-06-21T17:02:00.146Z,8.60
2017-06-21T17:04:28.389Z,7.60
2017-06-21T17:06:55.885Z,7.60
2017-06-21T17:09:24.121Z,7.47
2017-06-21T17:11:51.970Z,7.50
2017-06-21T17:14:19.465Z,8.30
2017-06-21T17:16:46.945Z,9.17
2017-06-21T17:19:14.417Z,7.30
2017-06-21T17:21:41.909Z,6.53
2017-06-21T17:24:09.421Z,7.73
2017-06-21T17:26:37.209Z,8.17
2017-06-21T17:29:04.706Z,10.93
2017-06-21T17:31:32.185Z,8.13
2017-06-21T17:34:00.426Z,8.37
2017-06-21T17:36:27.934Z,8.90
2017-06-21T17:38:55.405Z,7.67
2017-06-21T17:41:23.002Z,8.17
2017-06-21T17:43:50.493Z,7.97
2017-06-21T17:46:18.733Z,8.20
2017-06-21T17:48:46.205Z,7.97
2017-06-21T17:51:13.701Z,8.23
2017-06-21T17:53:41.177Z,7.90
2017-06-21T17:56:08.653Z,8.10
2017-06-21T17:58:36.145Z,8.00
2017-06-21T18:01:04.386Z,7.80
2017-06-21T18:03:31.859Z,7.80
2017-06-21T18:05:59.357Z,7.07
2017-06-21T18:08:26.897Z,7.63
2017-06-21T18:10:55.142Z,7.83
2017-06-21T18:13:29.523Z,7.90
2017-06-21T18:15:57.286Z,7.40
2017-06-21T18:18:25.057Z,8.00
2017-06-21T18:20:52.552Z,8.77
2017-06-21T18:23:20.023Z,8.03
2017-06-21T18:25:48.271Z,7.20
2017-06-21T18:28:16.101Z,8.50
2017-06-21T18:30:43.667Z,7.10
2017-06-21T18:33:11.187Z,7.83
2017-06-21T18:35:39.464Z,7.83
2017-06-21T18:38:07.758Z,7.50
2017-06-21T18:40:35.256Z,12.63
2017-06-21T18:43:02.810Z,9.40
2017-06-21T18:45:30.325Z,7.30
2017-06-21T18:47:57.805Z,9.87
2017-06-21T18:50:25.303Z,8.27
2017-06-21T18:52:52.776Z,10.40
2017-06-21T18:55:21.020Z,8.37
2017-06-21T18:57:48.509Z,9.17
2017-06-21T19:00:16.746Z,8.90
2017-06-21T19:02:44.511Z,10.67
2017-06-21T19:05:12.012Z,10.63
2017-06-21T19:07:40.257Z,10.17
2017-06-21T19:10:07.737Z,8.10
2017-06-21T19:12:36.005Z,9.23
2017-06-21T19:15:04.261Z,10.37
2017-06-21T19:17:31.734Z,9.73
2017-06-21T19:19:59.238Z,10.53
2017-06-21T19:22:26.713Z,10.90
2017-06-21T19:24:54.221Z,13.00
2017-06-21T19:27:22.485Z,11.50
2017-06-21T19:29:49.964Z,11.10
2017-06-21T19:32:17.453Z,10.20
2017-06-21T19:34:44.967Z,11.50
2017-06-21T19:37:13.209Z,9.63
2017-06-21T19:39:40.697Z,11.20
2017-06-21T19:42:08.237Z,9.10
2017-06-21T19:44:35.721Z,13.63
2017-06-21T19:47:11.598Z,12.13
2017-06-21T19:49:45.773Z,11.17
2017-06-21T19:52:13.745Z,10.80
2017-06-21T19:54:41.989Z,11.90
2017-06-21T19:57:09.465Z,11.50
2017-06-21T19:59:37.250Z,11.83
2017-06-21T20:02:05.494Z,13.23
2017-06-21T20:04:32.974Z,12.67
2017-06-21T20:07:01.242Z,17.13
2017-06-21T20:09:28.725Z,12.70
2017-06-21T20:11:56.209Z,11.90
2017-06-21T20:14:23.717Z,11.90
2017-06-21T20:16:51.969Z,12.40
2017-06-21T20:19:19.458Z,13.00
2017-06-21T20:21:47.726Z,22.30
2017-06-21T20:24:15.982Z,22.23
2017-06-21T20:26:43.465Z,20.03
2017-06-21T20:29:11.729Z,23.33
2017-06-21T20:31:39.210Z,26.23
2017-06-21T20:34:06.689Z,17.80
2017-06-21T20:36:34.194Z,16.13
2017-06-21T20:39:01.674Z,14.60
2017-06-21T20:41:29.921Z,14.37
2017-06-21T20:43:57.478Z,13.80
2017-06-21T20:46:24.958Z,13.97
2017-06-21T20:48:53.205Z,14.40
2017-06-21T20:51:20.709Z,14.20
2017-06-21T20:53:48.185Z,14.73
2017-06-21T20:56:15.661Z,16.10
2017-06-21T20:58:43.165Z,14.30
2017-06-21T21:01:11.409Z,14.90
2017-06-21T21:03:38.889Z,14.27
2017-06-21T21:06:07.165Z,13.10
2017-06-21T21:08:35.413Z,13.87
2017-06-21T21:11:02.890Z,13.90
2017-06-21T21:13:30.390Z,14.70
2017-06-21T21:15:57.868Z,14.50
2017-06-21T21:18:25.349Z,16.10
2017-06-21T21:20:52.852Z,15.20
2017-06-21T21:23:20.329Z,14.97
2017-06-21T21:25:47.846Z,14.77
2017-06-21T21:28:16.116Z,16.70
2017-06-21T21:30:44.366Z,25.67
2017-06-21T21:33:12.101Z,15.93
2017-06-21T21:35:39.598Z,15.30
2017-06-21T21:38:07.073Z,15.80
2017-06-21T21:40:35.322Z,15.20
2017-06-21T21:43:02.825Z,14.70
2017-06-21T21:45:30.345Z,14.63
2017-06-21T21:47:57.907Z,15.77
2017-06-21T21:50:25.424Z,14.17
2017-06-21T21:52:52.900Z,15.90
2017-06-21T21:55:20.381Z,14.20
2017-06-21T21:57:48.725Z,19.63
2017-06-21T22:00:16.206Z,21.10
2017-06-21T22:02:43.685Z,30.70
2017-06-21T22:05:11.949Z,21.67
2017-06-21T22:07:39.664Z,18.50
2017-06-21T22:10:07.145Z,18.87
2017-06-21T22:12:34.836Z,18.07
2017-06-21T22:15:03.081Z,18.33
2017-06-21T22:17:30.556Z,24.00
2017-06-21T22:19:58.057Z,16.43
2017-06-21T22:22:25.538Z,17.97
2017-06-21T22:24:53.017Z,16.63
2017-06-21T22:27:20.526Z,18.90
2017-06-21T22:29:48.058Z,16.47
2017-06-21T22:32:16.305Z,17.47
2017-06-21T22:34:43.801Z,16.80
2017-06-21T22:37:12.045Z,16.80
2017-06-21T22:39:39.526Z,15.33
2017-06-21T22:42:07.805Z,17.40
2017-06-21T22:44:36.053Z,16.03
2017-06-21T22:47:03.529Z,15.40
2017-06-21T22:49:31.809Z,15.63
2017-06-21T22:52:00.330Z,17.27
2017-06-21T22:54:27.813Z,16.13
2017-06-21T22:56:55.310Z,17.83
2017-06-21T22:59:23.553Z,18.13
2017-06-21T23:01:51.033Z,19.80
2017-06-21T23:04:19.297Z,16.67
2017-06-21T23:06:46.777Z,19.60
2017-06-21T23:09:14.261Z,21.67
2017-06-21T23:11:41.757Z,21.07
2017-06-21T23:14:09.237Z,19.70
2017-06-21T23:16:37.485Z,18.53
2017-06-21T23:19:04.981Z,17.20
2017-06-21T23:21:32.533Z,19.80
2017-06-21T23:24:00.777Z,19.13
2017-06-21T23:26:28.279Z,19.20
2017-06-21T23:28:55.758Z,20.67
2017-06-21T23:31:23.277Z,21.77
2017-06-21T23:33:51.545Z,19.27
2017-06-21T23:36:19.885Z,20.17
2017-06-21T23:38:47.361Z,22.70
2017-06-21T23:41:14.865Z,17.83
2017-06-21T23:43:42.346Z,18.27
2017-06-21T23:46:09.829Z,18.63
2017-06-21T23:48:37.333Z,19.83
2017-06-21T23:51:04.813Z,20.60
2017-06-21T23:53:32.294Z,19.23
2017-06-21T23:55:59.886Z,21.77
2017-06-21T23:58:28.414Z,23.57
